createdAt,value
2018-01-16T00:00:02.379Z,6.9
2018-01-16T00:10:17.069Z,6.9
2018-01-16T00:20:32.358Z,6.8
2018-01-16T00:30:47.464Z,7.1
2018-01-16T00:41:01.613Z,7.3
2018-01-16T00:51:16.844Z,7.1
2018-01-16T01:01:30.548Z,7.1
2018-01-16T01:11:46.133Z,7.1
2018-01-16T01:21:59.970Z,6.6
2018-01-16T01:32:13.671Z,6.6
2018-01-16T01:42:28.040Z,6.6
2018-01-16T01:52:42.727Z,6.6
2018-01-16T02:02:57.512Z,6.5
2018-01-16T02:13:11.723Z,6.4
2018-01-16T02:23:27.060Z,6.7
2018-01-16T02:33:42.736Z,6.5
2018-01-16T02:43:58.028Z,6.3
2018-01-16T02:54:12.391Z,6.1
2018-01-16T03:04:27.593Z,5.9
2018-01-16T03:14:42.004Z,5.8
2018-01-16T03:24:57.560Z,5.9
2018-01-16T03:35:11.780Z,5.6
2018-01-16T03:45:26.805Z,5.9
2018-01-16T03:55:41.076Z,5.9
2018-01-16T04:05:55.410Z,5.9
2018-01-16T04:16:09.274Z,6.1
2018-01-16T04:26:23.569Z,6.2
2018-01-16T04:36:37.673Z,6.1
2018-01-16T04:46:52.417Z,6.1
2018-01-16T04:57:06.996Z,5.8
2018-01-16T05:07:22.635Z,5.7
2018-01-16T05:17:37.344Z,5.6
2018-01-16T05:27:51.477Z,5.7
2018-01-16T05:38:06.006Z,5.6
2018-01-16T05:48:20.674Z,5.2
2018-01-16T05:58:35.927Z,5.4
2018-01-16T06:08:50.234Z,5.9
2018-01-16T06:19:03.937Z,5.9
2018-01-16T06:29:17.774Z,6.3
2018-01-16T06:39:32.081Z,6.3
2018-01-16T06:49:46.753Z,6.2
2018-01-16T07:00:01.515Z,6.6
2018-01-16T07:10:16.737Z,6.5
2018-01-16T07:20:32.000Z,6.5
2018-01-16T07:30:45.908Z,6.4
2018-01-16T07:41:00.477Z,6.3
2018-01-16T07:51:14.387Z,6.2
2018-01-16T08:01:28.100Z,6.1
2018-01-16T08:11:43.568Z,6.2
2018-01-16T08:21:58.929Z,6.1
2018-01-16T08:32:12.847Z,5.1
2018-01-16T08:42:28.327Z,4.1
2018-01-16T08:52:42.432Z,4
2018-01-16T09:02:57.065Z,3.9
2018-01-16T09:13:10.531Z,3.8
2018-01-16T09:23:24.724Z,3.9
2018-01-16T09:33:39.080Z,3.5
2018-01-16T09:43:53.801Z,3.1
2018-01-16T09:54:09.355Z,3.1
2018-01-16T10:04:24.211Z,2.7
2018-01-16T10:14:38.325Z,2.9
2018-01-16T10:24:52.384Z,3
2018-01-16T10:35:07.227Z,3.5
2018-01-16T10:45:21.289Z,3.2
2018-01-16T10:55:35.312Z,4.1
2018-01-16T11:05:49.025Z,4.5
2018-01-16T11:16:04.333Z,4.9
2018-01-16T11:26:18.263Z,4.9
2018-01-16T11:36:33.541Z,4.7
2018-01-16T11:46:48.973Z,4.8
2018-01-16T11:57:03.131Z,5.1
2018-01-16T12:07:18.502Z,5.2
2018-01-16T12:17:33.971Z,5.5
2018-01-16T12:27:48.398Z,5.7
2018-01-16T12:38:02.945Z,5.9
2018-01-16T12:48:17.892Z,5.9
2018-01-16T12:58:32.431Z,6.5
2018-01-16T13:08:46.006Z,6.8
2018-01-16T13:19:00.975Z,7.2
2018-01-16T13:29:16.610Z,6.5
2018-01-16T13:39:30.605Z,6.8
2018-01-16T13:49:45.501Z,6.2
2018-01-16T14:00:00.578Z,3.9
2018-01-16T14:10:15.288Z,3.6
2018-01-16T14:20:29.965Z,3.5
2018-01-16T14:30:44.599Z,3.5
2018-01-16T14:40:59.187Z,3.3
2018-01-16T14:51:14.096Z,3.8
2018-01-16T15:01:28.957Z,4.2
2018-01-16T15:11:44.429Z,3.9
2018-01-16T15:22:00.015Z,3.9
2018-01-16T15:32:15.514Z,3.9
2018-01-16T15:42:31.126Z,4.2
2018-01-16T15:52:44.953Z,4.3
2018-01-16T16:02:58.985Z,4
2018-01-16T16:13:12.763Z,3.2
2018-01-16T16:23:28.100Z,3.3
2018-01-16T16:33:42.101Z,3.4
2018-01-16T16:43:56.469Z,3.5
2018-01-16T16:54:10.550Z,3.2
2018-01-16T17:04:25.594Z,3.1
2018-01-16T17:14:41.074Z,3.1
2018-01-16T17:24:55.106Z,3.1
2018-01-16T17:35:10.122Z,2.9
2018-01-16T17:45:25.607Z,2.8
2018-01-16T17:55:39.643Z,3
2018-01-16T18:05:54.569Z,3
2018-01-16T18:16:08.817Z,3.2
2018-01-16T18:26:22.725Z,3.1
2018-01-16T18:36:37.326Z,2.9
2018-01-16T18:46:51.181Z,2.8
2018-01-16T18:57:06.055Z,2.6
2018-01-16T19:07:20.788Z,2.5
2018-01-16T19:17:35.318Z,2.4
2018-01-16T19:27:49.883Z,2.5
2018-01-16T19:38:05.490Z,2.6
2018-01-16T19:48:20.587Z,2.9
2018-01-16T19:58:35.598Z,2.4
2018-01-16T20:08:49.440Z,2.3
2018-01-16T20:19:03.641Z,2.4
2018-01-16T20:29:17.375Z,2.6
2018-01-16T20:39:31.193Z,2.7
2018-01-16T20:49:45.867Z,2.3
2018-01-16T21:00:00.729Z,2.1
2018-01-16T21:10:16.162Z,2.3
2018-01-16T21:20:31.266Z,2
2018-01-16T21:30:46.410Z,2.2
2018-01-16T21:41:01.714Z,2.1
2018-01-16T21:51:16.560Z,2.2
2018-01-16T22:01:30.691Z,2.3
2018-01-16T22:11:44.456Z,2.4
2018-01-16T22:21:59.621Z,2.5
2018-01-16T22:32:14.619Z,2.9
2018-01-16T22:42:29.646Z,2.9
2018-01-16T22:52:44.530Z,3.3
2018-01-16T23:02:59.943Z,2.8
2018-01-16T23:13:14.258Z,2.6
2018-01-16T23:23:29.562Z,2.4
2018-01-16T23:33:43.664Z,2.1
2018-01-16T23:43:57.714Z,2.1
2018-01-16T23:54:12.965Z,2.1
